createdAt,value
2022-12-16T00:00:55.525Z,0.00
2022-12-16T00:01:55.686Z,0.00
2022-12-16T00:02:55.834Z,0.00
2022-12-16T00:03:55.956Z,0.00
2022-12-16T00:04:56.135Z,0.00
2022-12-16T00:05:56.363Z,0.00
2022-12-16T00:06:56.482Z,0.00
2022-12-16T00:07:56.683Z,0.00
2022-12-16T00:08:56.840Z,0.00
2022-12-16T00:09:57.056Z,0.00
2022-12-16T00:10:57.212Z,0.00
2022-12-16T00:11:57.393Z,0.00
2022-12-16T00:12:57.601Z,0.00
2022-12-16T00:13:57.751Z,0.00
2022-12-16T00:14:57.938Z,0.00
2022-12-16T00:15:58.167Z,0.00
2022-12-16T00:16:58.300Z,0.00
2022-12-16T00:17:58.514Z,0.00
2022-12-16T00:18:58.665Z,0.00
2022-12-16T00:19:58.847Z,0.00
2022-12-16T00:20:59.030Z,0.00
2022-12-16T00:21:59.230Z,0.00
2022-12-16T00:22:59.399Z,0.00
2022-12-16T00:23:59.550Z,0.00
2022-12-16T00:24:59.739Z,0.00
2022-12-16T00:25:59.926Z,0.00
2022-12-16T00:27:00.109Z,0.00
2022-12-16T00:28:00.651Z,0.00
2022-12-16T00:29:00.478Z,0.00
2022-12-16T00:30:00.628Z,0.00
2022-12-16T00:31:00.808Z,0.00
2022-12-16T00:32:01.080Z,0.00
2022-12-16T00:33:01.192Z,0.00
2022-12-16T00:34:01.344Z,0.00
2022-12-16T00:35:01.517Z,0.00
2022-12-16T00:36:01.710Z,0.00
2022-12-16T00:37:01.896Z,0.00
2022-12-16T00:38:02.096Z,0.00
2022-12-16T00:39:02.256Z,0.00
2022-12-16T00:40:02.435Z,0.00
2022-12-16T00:41:02.639Z,0.00
2022-12-16T00:42:02.806Z,0.00
2022-12-16T00:43:03.021Z,0.00
2022-12-16T00:44:03.167Z,0.00
2022-12-16T00:45:03.356Z,0.00
2022-12-16T00:46:03.606Z,0.00
2022-12-16T00:47:03.718Z,0.00
2022-12-16T00:48:03.906Z,0.00
2022-12-16T00:49:04.124Z,0.00
2022-12-16T00:50:04.285Z,0.00
2022-12-16T00:51:04.484Z,0.00
2022-12-16T00:52:04.760Z,0.00
2022-12-16T00:53:04.809Z,0.00
2022-12-16T00:54:05.006Z,0.00
2022-12-16T00:55:05.153Z,0.00
2022-12-16T00:56:05.341Z,0.00
2022-12-16T00:57:05.536Z,0.00
2022-12-16T00:58:05.702Z,0.00
2022-12-16T00:59:05.853Z,0.00
2022-12-16T01:00:06.041Z,0.00
2022-12-16T01:01:06.342Z,0.00
2022-12-16T01:02:06.609Z,0.00
2022-12-16T01:03:06.851Z,0.00
2022-12-16T01:04:06.757Z,0.00
2022-12-16T01:05:06.911Z,0.00
2022-12-16T01:06:07.101Z,0.00
2022-12-16T01:07:07.292Z,0.00
2022-12-16T01:08:07.487Z,0.00
2022-12-16T01:09:07.650Z,0.00
2022-12-16T01:10:07.811Z,0.00
2022-12-16T01:11:07.993Z,0.00
2022-12-16T01:12:08.158Z,0.00
2022-12-16T01:13:08.371Z,0.00
2022-12-16T01:14:08.528Z,0.00
2022-12-16T01:15:08.708Z,0.00
2022-12-16T01:16:08.965Z,0.00
2022-12-16T01:17:09.048Z,0.00
2022-12-16T01:18:09.257Z,0.00
2022-12-16T01:19:09.407Z,0.00
2022-12-16T01:20:09.595Z,0.00
2022-12-16T01:21:09.777Z,0.00
2022-12-16T01:22:09.959Z,0.00
2022-12-16T01:23:10.146Z,0.00
2022-12-16T01:24:10.344Z,0.00
2022-12-16T01:25:10.487Z,0.00
2022-12-16T01:26:10.684Z,0.00
2022-12-16T01:27:10.907Z,0.00
2022-12-16T01:28:11.055Z,0.00
2022-12-16T01:29:11.205Z,0.00
2022-12-16T01:30:11.401Z,0.00
2022-12-16T01:31:11.639Z,0.00
2022-12-16T01:32:11.782Z,0.00
2022-12-16T01:33:11.923Z,0.00
2022-12-16T01:34:12.129Z,0.00
2022-12-16T01:35:36.411Z,0.00
2022-12-16T01:36:13.443Z,0.00
2022-12-16T01:37:12.624Z,0.00
2022-12-16T01:38:12.814Z,0.00
2022-12-16T01:39:12.974Z,0.00
2022-12-16T01:40:13.164Z,0.00
2022-12-16T01:41:13.352Z,0.00
2022-12-16T01:42:13.513Z,0.00
2022-12-16T01:43:13.713Z,0.00
2022-12-16T01:44:13.864Z,0.00
2022-12-16T01:45:14.043Z,0.00
2022-12-16T01:46:14.288Z,0.00
2022-12-16T01:47:14.404Z,0.00
2022-12-16T01:48:14.598Z,0.00
2022-12-16T01:49:14.786Z,0.00
2022-12-16T01:50:14.970Z,0.00
2022-12-16T01:51:15.168Z,0.00
2022-12-16T01:52:15.331Z,0.00
2022-12-16T01:53:15.511Z,0.00
2022-12-16T01:54:15.683Z,0.00
2022-12-16T01:55:15.851Z,0.00
2022-12-16T01:56:16.040Z,0.00
2022-12-16T01:57:16.226Z,0.00
2022-12-16T01:58:16.439Z,0.00
2022-12-16T01:59:16.580Z,0.00
2022-12-16T02:00:16.770Z,0.00
2022-12-16T02:01:17.015Z,0.00
2022-12-16T02:02:17.253Z,0.00
2022-12-16T02:03:17.417Z,0.00
2022-12-16T02:04:17.489Z,0.00
2022-12-16T02:05:17.669Z,0.00
2022-12-16T02:06:17.869Z,0.00
2022-12-16T02:07:18.037Z,0.00
2022-12-16T02:08:18.200Z,0.00
2022-12-16T02:09:18.360Z,0.00
2022-12-16T02:10:18.548Z,0.00
2022-12-16T02:11:18.706Z,0.00
2022-12-16T02:12:18.938Z,0.00
2022-12-16T02:13:19.077Z,0.00
2022-12-16T02:14:19.227Z,0.00
2022-12-16T02:15:19.422Z,0.00
2022-12-16T02:16:19.716Z,0.00
2022-12-16T02:17:19.837Z,0.00
2022-12-16T02:18:19.977Z,0.00
2022-12-16T02:19:20.127Z,0.00
2022-12-16T02:20:20.323Z,0.00
2022-12-16T02:21:20.483Z,0.00
2022-12-16T02:22:20.675Z,0.00
2022-12-16T02:23:20.838Z,0.00
2022-12-16T02:24:21.023Z,0.00
2022-12-16T02:25:21.207Z,0.00
2022-12-16T02:26:21.394Z,0.00
2022-12-16T02:27:21.577Z,0.00
2022-12-16T02:28:21.765Z,0.00
2022-12-16T02:29:21.963Z,0.00
2022-12-16T02:30:22.154Z,0.00
2022-12-16T02:31:22.492Z,0.00
2022-12-16T02:32:22.504Z,0.00
2022-12-16T02:33:22.666Z,0.00
2022-12-16T02:34:22.813Z,0.00
2022-12-16T02:35:22.992Z,0.00
2022-12-16T02:36:23.186Z,0.00
2022-12-16T02:37:23.366Z,0.00
2022-12-16T02:38:23.553Z,0.00
2022-12-16T02:39:23.742Z,0.00
2022-12-16T02:40:23.923Z,0.00
2022-12-16T02:41:24.111Z,0.00
2022-12-16T02:42:24.308Z,0.00
2022-12-16T02:43:24.457Z,0.00
2022-12-16T02:44:24.663Z,0.00
2022-12-16T02:45:24.806Z,0.00
2022-12-16T02:46:24.981Z,0.00
2022-12-16T02:47:25.149Z,0.00
2022-12-16T02:48:25.360Z,0.00
2022-12-16T02:49:25.509Z,0.00
2022-12-16T02:50:25.701Z,0.00
2022-12-16T02:51:25.889Z,0.00
2022-12-16T02:52:26.165Z,0.00
2022-12-16T02:53:26.275Z,0.00
2022-12-16T02:54:26.426Z,0.00
2022-12-16T02:55:26.608Z,0.00
2022-12-16T02:56:26.802Z,0.00
2022-12-16T02:57:26.977Z,0.00
2022-12-16T02:58:27.199Z,0.00
2022-12-16T02:59:27.328Z,0.00
2022-12-16T03:00:27.518Z,0.00
2022-12-16T03:01:27.816Z,0.00
2022-12-16T03:02:28.020Z,0.00
2022-12-16T03:03:28.096Z,0.00
2022-12-16T03:04:28.207Z,0.00
2022-12-16T03:05:28.389Z,0.00
2022-12-16T03:06:28.582Z,0.00
2022-12-16T03:07:28.763Z,0.00
2022-12-16T03:08:28.973Z,0.00
2022-12-16T03:09:29.117Z,0.00
2022-12-16T03:10:29.303Z,0.00
2022-12-16T03:11:29.485Z,0.00
2022-12-16T03:12:29.675Z,0.00
2022-12-16T03:13:30.145Z,0.00
2022-12-16T03:14:30.048Z,0.00
2022-12-16T03:15:30.201Z,0.00
2022-12-16T03:16:30.452Z,0.00
2022-12-16T03:17:30.552Z,0.00
2022-12-16T03:18:30.743Z,0.00
2022-12-16T03:19:30.906Z,0.00
2022-12-16T03:20:31.062Z,0.00
2022-12-16T03:21:31.254Z,0.00
2022-12-16T03:22:31.450Z,0.00
2022-12-16T03:23:31.899Z,0.00
2022-12-16T03:24:31.802Z,0.00
2022-12-16T03:25:31.951Z,0.00
2022-12-16T03:26:32.149Z,0.00
2022-12-16T03:27:32.291Z,0.00
2022-12-16T03:28:32.512Z,0.00
2022-12-16T03:29:32.661Z,0.00
2022-12-16T03:30:32.878Z,0.00
2022-12-16T03:31:33.061Z,0.00
2022-12-16T03:32:33.199Z,0.00
2022-12-16T03:33:33.976Z,0.00
2022-12-16T03:34:33.535Z,0.00
2022-12-16T03:35:33.729Z,0.00
2022-12-16T03:36:33.880Z,0.00
2022-12-16T03:37:34.067Z,0.00
2022-12-16T03:38:34.288Z,0.00
2022-12-16T03:39:34.440Z,0.00
2022-12-16T03:40:34.637Z,0.00
2022-12-16T03:41:34.788Z,0.00
2022-12-16T03:42:34.977Z,0.00
2022-12-16T03:43:35.438Z,0.00
2022-12-16T03:44:35.315Z,0.00
2022-12-16T03:45:35.481Z,0.00
2022-12-16T03:46:35.691Z,0.00
2022-12-16T03:47:35.808Z,0.00
2022-12-16T03:48:36.028Z,0.00
2022-12-16T03:49:36.177Z,0.00
2022-12-16T03:50:36.364Z,0.00
2022-12-16T03:51:36.563Z,0.00
2022-12-16T03:52:36.747Z,0.00
2022-12-16T03:53:36.933Z,0.00
2022-12-16T03:54:37.105Z,0.00
2022-12-16T03:55:37.274Z,0.00
2022-12-16T03:56:37.455Z,0.00
2022-12-16T03:57:37.637Z,0.00
2022-12-16T03:58:37.836Z,0.00
2022-12-16T03:59:37.984Z,0.00
2022-12-16T04:00:38.176Z,0.00
2022-12-16T04:01:38.471Z,0.00
2022-12-16T04:02:38.713Z,0.00
2022-12-16T04:03:38.766Z,0.00
2022-12-16T04:04:38.893Z,0.00
2022-12-16T04:05:39.045Z,0.00
2022-12-16T04:06:39.243Z,0.00
2022-12-16T04:07:39.431Z,0.00
2022-12-16T04:08:39.592Z,0.00
2022-12-16T04:09:39.753Z,0.00
2022-12-16T04:10:39.942Z,0.00
2022-12-16T04:11:40.091Z,0.00
2022-12-16T04:12:40.278Z,0.00
2022-12-16T04:13:40.480Z,0.00
2022-12-16T04:14:40.639Z,0.00
2022-12-16T04:15:40.841Z,0.00
2022-12-16T04:16:40.989Z,0.00
2022-12-16T04:17:41.143Z,0.00
2022-12-16T04:18:41.355Z,0.00
2022-12-16T04:19:41.528Z,0.00
2022-12-16T04:20:41.670Z,0.00
2022-12-16T04:21:41.858Z,0.00
2022-12-16T04:22:42.039Z,0.00
2022-12-16T04:23:42.220Z,0.00
2022-12-16T04:24:42.429Z,0.00
2022-12-16T04:25:42.589Z,0.00
2022-12-16T04:26:42.775Z,0.00
2022-12-16T04:27:42.979Z,0.00
2022-12-16T04:28:43.147Z,0.00
2022-12-16T04:29:43.305Z,0.00
2022-12-16T04:30:43.525Z,0.00
2022-12-16T04:31:43.687Z,0.00
2022-12-16T04:32:43.808Z,0.00
2022-12-16T04:33:44.007Z,0.00
2022-12-16T04:34:44.167Z,0.00
2022-12-16T04:35:44.349Z,0.00
2022-12-16T04:36:44.539Z,0.00
2022-12-16T04:37:44.733Z,0.00
2022-12-16T04:38:44.925Z,0.00
2022-12-16T04:39:45.077Z,0.00
2022-12-16T04:40:45.254Z,0.00
2022-12-16T04:41:45.442Z,0.00
2022-12-16T04:42:45.604Z,0.00
2022-12-16T04:43:45.814Z,0.00
2022-12-16T04:44:45.956Z,0.00
2022-12-16T04:45:46.153Z,0.00
2022-12-16T04:46:46.364Z,0.00
2022-12-16T04:47:46.475Z,0.00
2022-12-16T04:48:46.664Z,0.00
2022-12-16T04:49:46.848Z,0.00
2022-12-16T04:50:46.992Z,0.00
2022-12-16T04:51:47.175Z,0.00
2022-12-16T04:52:47.352Z,0.00
2022-12-16T04:53:47.548Z,0.00
2022-12-16T04:54:47.742Z,0.00
2022-12-16T04:55:47.911Z,0.00
2022-12-16T04:56:48.060Z,0.00
2022-12-16T04:57:48.255Z,0.00
2022-12-16T04:58:48.461Z,0.00
2022-12-16T04:59:48.620Z,0.00
2022-12-16T05:00:48.815Z,0.00
2022-12-16T05:01:49.108Z,0.00
2022-12-16T05:02:49.236Z,0.00
2022-12-16T05:03:49.437Z,0.00
2022-12-16T05:04:49.552Z,0.00
2022-12-16T05:05:49.693Z,0.00
2022-12-16T05:06:49.878Z,0.00
2022-12-16T05:07:50.069Z,0.00
2022-12-16T05:08:50.249Z,0.00
2022-12-16T05:09:50.449Z,0.00
2022-12-16T05:10:50.595Z,0.00
2022-12-16T05:11:50.810Z,0.00
2022-12-16T05:12:50.961Z,0.00
2022-12-16T05:13:51.178Z,0.00
2022-12-16T05:14:51.328Z,0.00
2022-12-16T05:15:51.590Z,0.00
2022-12-16T05:16:51.699Z,0.00
2022-12-16T05:17:51.908Z,0.00
2022-12-16T05:18:52.068Z,0.00
2022-12-16T05:19:52.228Z,0.00
2022-12-16T05:20:52.411Z,0.00
2022-12-16T05:21:52.596Z,0.00
2022-12-16T05:22:52.749Z,0.00
2022-12-16T05:23:52.965Z,0.00
2022-12-16T05:24:53.362Z,0.00
2022-12-16T05:25:53.285Z,0.00
2022-12-16T05:26:53.436Z,0.00
2022-12-16T05:27:53.623Z,0.00
2022-12-16T05:28:53.822Z,0.00
2022-12-16T05:29:53.994Z,0.00
2022-12-16T05:30:54.138Z,0.00
2022-12-16T05:31:54.328Z,0.00
2022-12-16T05:32:54.503Z,0.00
2022-12-16T05:33:54.711Z,0.00
2022-12-16T05:34:54.840Z,0.00
2022-12-16T05:35:54.994Z,0.00
2022-12-16T05:36:55.161Z,0.00
2022-12-16T05:37:55.339Z,0.00
2022-12-16T05:38:55.532Z,0.00
2022-12-16T05:39:55.712Z,0.00
2022-12-16T05:40:55.881Z,0.00
2022-12-16T05:41:56.032Z,0.00
2022-12-16T05:42:56.212Z,0.00
2022-12-16T05:43:56.412Z,0.00
2022-12-16T05:44:56.566Z,0.00
2022-12-16T05:45:56.785Z,0.00
2022-12-16T05:46:57.066Z,0.00
2022-12-16T05:47:57.098Z,0.00
2022-12-16T05:48:57.294Z,0.00
2022-12-16T05:49:57.450Z,0.00
2022-12-16T05:50:57.629Z,0.00
2022-12-16T05:51:57.840Z,0.00
2022-12-16T05:52:57.978Z,0.00
2022-12-16T05:53:58.188Z,0.00
2022-12-16T05:54:58.332Z,0.00
2022-12-16T05:55:58.520Z,0.00
2022-12-16T05:56:58.709Z,0.00
2022-12-16T05:57:58.891Z,0.00
2022-12-16T05:58:59.099Z,0.00
2022-12-16T05:59:59.260Z,0.00
2022-12-16T06:00:59.437Z,0.00
2022-12-16T06:01:59.745Z,0.00
2022-12-16T06:02:59.915Z,0.00
2022-12-16T06:04:00.090Z,0.00
2022-12-16T06:05:00.149Z,0.00
2022-12-16T06:06:00.343Z,0.00
2022-12-16T06:07:00.517Z,0.00
2022-12-16T06:08:00.702Z,0.00
2022-12-16T06:09:00.906Z,0.00
2022-12-16T06:10:01.067Z,0.00
2022-12-16T06:11:01.246Z,0.00
2022-12-16T06:12:01.443Z,0.00
2022-12-16T06:13:01.622Z,0.00
2022-12-16T06:14:01.832Z,0.00
2022-12-16T06:15:01.992Z,0.00
2022-12-16T06:16:08.150Z,0.00
2022-12-16T06:17:03.325Z,0.00
2022-12-16T06:18:02.506Z,0.00
2022-12-16T06:19:02.720Z,0.00
2022-12-16T06:20:02.894Z,0.00
2022-12-16T06:21:03.034Z,0.00
2022-12-16T06:22:03.230Z,0.00
2022-12-16T06:23:03.402Z,0.00
2022-12-16T06:24:03.655Z,0.00
2022-12-16T06:25:03.766Z,0.00
2022-12-16T06:26:03.955Z,0.00
2022-12-16T06:27:04.102Z,0.00
2022-12-16T06:28:04.293Z,0.00
2022-12-16T06:29:04.485Z,0.00
2022-12-16T06:30:04.639Z,0.00
2022-12-16T06:31:04.866Z,0.00
2022-12-16T06:32:05.041Z,0.00
2022-12-16T06:33:05.164Z,0.00
2022-12-16T06:34:05.332Z,0.00
2022-12-16T06:35:05.501Z,0.00
2022-12-16T06:36:05.660Z,0.00
2022-12-16T06:37:05.843Z,0.00
2022-12-16T06:38:06.035Z,0.00
2022-12-16T06:39:06.238Z,0.00
2022-12-16T06:40:06.399Z,0.00
2022-12-16T06:41:06.574Z,0.00
2022-12-16T06:42:06.742Z,0.00
2022-12-16T06:43:06.918Z,0.00
2022-12-16T06:44:07.088Z,0.00
2022-12-16T06:45:07.241Z,0.00
2022-12-16T06:46:07.466Z,0.00
2022-12-16T06:47:07.598Z,0.00
2022-12-16T06:48:07.818Z,0.00
2022-12-16T06:49:07.985Z,0.00
2022-12-16T06:50:08.130Z,0.00
2022-12-16T06:51:08.317Z,0.00
2022-12-16T06:52:08.500Z,0.00
2022-12-16T06:53:08.690Z,0.00
2022-12-16T06:54:08.846Z,0.00
2022-12-16T06:55:08.976Z,0.00
2022-12-16T06:56:10.108Z,0.00
2022-12-16T06:57:09.335Z,0.00
2022-12-16T06:58:10.171Z,0.00
2022-12-16T06:59:09.686Z,0.00
2022-12-16T07:00:09.857Z,0.00
2022-12-16T07:01:10.107Z,5.62
2022-12-16T07:02:10.268Z,5.62
2022-12-16T07:03:10.450Z,5.62
2022-12-16T07:04:10.578Z,5.62
2022-12-16T07:05:10.718Z,5.62
2022-12-16T07:06:10.907Z,5.62
2022-12-16T07:07:11.075Z,5.62
2022-12-16T07:08:11.226Z,5.62
2022-12-16T07:09:11.423Z,11.25
2022-12-16T07:10:11.591Z,11.25
2022-12-16T07:11:16.657Z,11.25
2022-12-16T07:12:12.932Z,11.25
2022-12-16T07:13:12.114Z,11.25
2022-12-16T07:14:12.296Z,11.25
2022-12-16T07:15:12.464Z,11.25
2022-12-16T07:16:12.706Z,16.88
2022-12-16T07:17:17.109Z,16.88
2022-12-16T07:18:12.994Z,16.88
2022-12-16T07:19:13.202Z,16.88
2022-12-16T07:20:13.341Z,16.88
2022-12-16T07:21:13.510Z,16.88
2022-12-16T07:22:13.679Z,22.50
2022-12-16T07:23:19.562Z,22.50
2022-12-16T07:24:15.032Z,22.50
2022-12-16T07:25:14.188Z,22.50
2022-12-16T07:26:14.360Z,22.50
2022-12-16T07:27:14.520Z,28.12
2022-12-16T07:28:15.828Z,28.12
2022-12-16T07:29:14.873Z,28.12
2022-12-16T07:30:15.068Z,28.12
2022-12-16T07:31:15.283Z,28.12
2022-12-16T07:32:15.399Z,28.12
2022-12-16T07:33:15.560Z,33.75
2022-12-16T07:34:15.727Z,33.75
2022-12-16T07:35:15.918Z,33.75
2022-12-16T07:36:16.089Z,33.75
2022-12-16T07:37:16.257Z,33.75
2022-12-16T07:38:16.427Z,39.38
2022-12-16T07:39:16.587Z,39.38
2022-12-16T07:40:16.768Z,39.38
2022-12-16T07:41:16.936Z,39.38
2022-12-16T07:42:17.106Z,45.00
2022-12-16T07:43:17.276Z,45.00
2022-12-16T07:44:17.445Z,45.00
2022-12-16T07:45:17.835Z,45.00
2022-12-16T07:46:17.829Z,50.62
2022-12-16T07:47:18.244Z,50.62
2022-12-16T07:48:18.126Z,50.62
2022-12-16T07:49:18.293Z,56.25
2022-12-16T07:50:18.475Z,56.25
2022-12-16T07:51:18.635Z,56.25
2022-12-16T07:52:18.815Z,56.25
2022-12-16T07:53:18.985Z,61.88
2022-12-16T07:54:19.154Z,61.88
2022-12-16T07:55:19.360Z,67.50
2022-12-16T07:56:19.516Z,67.50
2022-12-16T07:57:19.695Z,67.50
2022-12-16T07:58:19.880Z,73.12
2022-12-16T07:59:20.046Z,73.12
2022-12-16T08:00:20.213Z,78.75
2022-12-16T08:01:20.437Z,78.75
2022-12-16T08:02:20.772Z,84.38
2022-12-16T08:03:20.738Z,84.38
2022-12-16T08:04:20.887Z,84.38
2022-12-16T08:05:21.092Z,84.38
2022-12-16T08:06:21.253Z,84.38
2022-12-16T08:07:21.432Z,90.00
2022-12-16T08:08:21.631Z,90.00
2022-12-16T08:09:21.780Z,90.00
2022-12-16T08:10:21.991Z,95.62
2022-12-16T08:11:22.147Z,95.62
2022-12-16T08:12:22.374Z,101.25
2022-12-16T08:13:25.845Z,106.88
2022-12-16T08:14:22.697Z,112.50
2022-12-16T08:15:22.923Z,118.12
2022-12-16T08:16:23.102Z,123.75
2022-12-16T08:17:23.265Z,129.38
2022-12-16T08:18:23.428Z,135.00
2022-12-16T08:19:23.602Z,135.00
2022-12-16T08:20:23.797Z,140.62
2022-12-16T08:21:23.959Z,140.62
2022-12-16T08:22:24.131Z,140.62
2022-12-16T08:23:24.300Z,140.62
2022-12-16T08:24:24.491Z,135.00
2022-12-16T08:25:24.659Z,129.38
2022-12-16T08:26:24.841Z,140.62
2022-12-16T08:27:25.047Z,135.00
2022-12-16T08:28:25.169Z,129.38
2022-12-16T08:29:43.885Z,135.00
2022-12-16T08:30:26.696Z,129.38
2022-12-16T08:31:25.774Z,140.62
2022-12-16T08:32:25.885Z,140.62
2022-12-16T08:33:26.039Z,140.62
2022-12-16T08:34:26.206Z,146.25
2022-12-16T08:35:26.396Z,151.88
2022-12-16T08:36:26.575Z,163.12
2022-12-16T08:37:26.752Z,157.50
2022-12-16T08:38:26.938Z,168.75
2022-12-16T08:39:27.106Z,168.75
2022-12-16T08:40:35.216Z,168.75
2022-12-16T08:41:28.452Z,168.75
2022-12-16T08:42:27.624Z,196.88
2022-12-16T08:43:27.817Z,191.25
2022-12-16T08:44:27.994Z,180.00
2022-12-16T08:45:28.182Z,185.62
2022-12-16T08:46:28.417Z,185.62
2022-12-16T08:47:28.548Z,191.25
2022-12-16T08:48:28.703Z,202.50
2022-12-16T08:49:28.886Z,185.62
2022-12-16T08:50:29.076Z,208.12
2022-12-16T08:51:29.233Z,219.38
2022-12-16T08:52:29.404Z,225.00
2022-12-16T08:53:29.828Z,230.62
2022-12-16T08:54:29.792Z,236.25
2022-12-16T08:55:30.128Z,241.88
2022-12-16T08:56:30.111Z,247.50
2022-12-16T08:57:30.301Z,247.50
2022-12-16T08:58:30.465Z,247.50
2022-12-16T08:59:30.774Z,253.12
2022-12-16T09:00:30.811Z,281.25
2022-12-16T09:01:31.050Z,331.88
2022-12-16T09:02:31.365Z,399.38
2022-12-16T09:03:31.905Z,483.75
2022-12-16T09:04:31.490Z,528.75
2022-12-16T09:05:31.682Z,517.50
2022-12-16T09:06:35.649Z,551.25
2022-12-16T09:07:33.018Z,720.00
2022-12-16T09:08:32.188Z,781.88
2022-12-16T09:09:32.360Z,770.62
2022-12-16T09:10:39.030Z,753.75
2022-12-16T09:11:33.734Z,703.12
2022-12-16T09:12:32.909Z,731.25
2022-12-16T09:13:33.427Z,787.50
2022-12-16T09:14:33.228Z,781.88
2022-12-16T09:15:33.457Z,815.62
2022-12-16T09:16:33.658Z,855.00
2022-12-16T09:17:33.753Z,855.00
2022-12-16T09:18:33.912Z,416.25
2022-12-16T09:19:34.096Z,331.88
2022-12-16T09:20:34.284Z,438.75
2022-12-16T09:21:34.446Z,348.75
2022-12-16T09:22:34.627Z,410.62
2022-12-16T09:23:35.173Z,759.38
2022-12-16T09:24:34.978Z,416.25
2022-12-16T09:25:35.160Z,315.00
2022-12-16T09:26:35.372Z,298.12
2022-12-16T09:27:35.524Z,292.50
2022-12-16T09:28:35.705Z,286.88
2022-12-16T09:29:38.296Z,286.88
2022-12-16T09:30:37.102Z,281.25
2022-12-16T09:31:36.287Z,275.62
2022-12-16T09:32:36.388Z,275.62
2022-12-16T09:33:36.728Z,275.62
2022-12-16T09:34:36.757Z,281.25
2022-12-16T09:35:36.942Z,281.25
2022-12-16T09:36:37.096Z,286.88
2022-12-16T09:37:37.275Z,298.12
2022-12-16T09:38:37.454Z,303.75
2022-12-16T09:39:37.655Z,303.75
2022-12-16T09:40:37.858Z,309.38
2022-12-16T09:41:42.848Z,315.00
2022-12-16T09:42:39.173Z,315.00
2022-12-16T09:43:38.364Z,320.62
2022-12-16T09:44:38.544Z,320.62
2022-12-16T09:45:38.704Z,303.75
2022-12-16T09:46:38.951Z,298.12
2022-12-16T09:47:39.054Z,303.75
2022-12-16T09:48:39.234Z,315.00
2022-12-16T09:49:39.414Z,315.00
2022-12-16T09:50:39.594Z,326.25
2022-12-16T09:51:39.773Z,326.25
2022-12-16T09:52:39.979Z,326.25
2022-12-16T09:53:40.121Z,331.88
2022-12-16T09:54:40.282Z,331.88
2022-12-16T09:55:40.473Z,337.50
2022-12-16T09:56:40.631Z,337.50
2022-12-16T09:57:40.821Z,348.75
2022-12-16T09:58:41.084Z,354.38
2022-12-16T09:59:41.172Z,348.75
2022-12-16T10:00:41.340Z,337.50
2022-12-16T10:01:41.646Z,331.88
2022-12-16T10:02:41.841Z,354.38
2022-12-16T10:03:41.944Z,354.38
2022-12-16T10:04:42.031Z,354.38
2022-12-16T10:05:42.212Z,343.12
2022-12-16T10:06:42.381Z,343.12
2022-12-16T10:07:42.551Z,343.12
2022-12-16T10:08:42.722Z,376.88
2022-12-16T10:09:42.892Z,371.25
2022-12-16T10:10:43.068Z,354.38
2022-12-16T10:11:43.269Z,354.38
2022-12-16T10:12:43.420Z,376.88
2022-12-16T10:13:43.589Z,382.50
2022-12-16T10:14:43.763Z,382.50
2022-12-16T10:15:44.019Z,388.12
2022-12-16T10:16:44.126Z,388.12
2022-12-16T10:17:44.298Z,371.25
2022-12-16T10:18:44.565Z,365.62
2022-12-16T10:19:44.629Z,371.25
2022-12-16T10:20:44.808Z,376.88
2022-12-16T10:21:44.980Z,371.25
2022-12-16T10:22:45.148Z,348.75
2022-12-16T10:23:45.318Z,354.38
2022-12-16T10:24:45.488Z,337.50
2022-12-16T10:25:45.667Z,343.12
2022-12-16T10:26:45.837Z,348.75
2022-12-16T10:27:46.040Z,337.50
2022-12-16T10:28:46.177Z,343.12
2022-12-16T10:29:46.357Z,343.12
2022-12-16T10:30:46.584Z,337.50
2022-12-16T10:31:46.746Z,343.12
2022-12-16T10:32:46.898Z,348.75
2022-12-16T10:33:47.076Z,360.00
2022-12-16T10:34:47.245Z,354.38
2022-12-16T10:35:47.447Z,337.50
2022-12-16T10:36:47.606Z,331.88
2022-12-16T10:37:47.799Z,337.50
2022-12-16T10:38:47.945Z,331.88
2022-12-16T10:39:48.127Z,343.12
2022-12-16T10:40:48.306Z,337.50
2022-12-16T10:41:48.475Z,337.50
2022-12-16T10:42:48.637Z,343.12
2022-12-16T10:43:48.845Z,348.75
2022-12-16T10:44:48.987Z,337.50
2022-12-16T10:45:49.165Z,337.50
2022-12-16T10:46:49.415Z,331.88
2022-12-16T10:47:49.525Z,326.25
2022-12-16T10:48:55.143Z,326.25
2022-12-16T10:49:54.824Z,315.00
2022-12-16T10:50:50.043Z,281.25
2022-12-16T10:51:50.231Z,281.25
2022-12-16T10:52:50.387Z,298.12
2022-12-16T10:53:50.591Z,320.62
2022-12-16T10:54:50.739Z,326.25
2022-12-16T10:55:50.933Z,315.00
2022-12-16T10:56:51.133Z,303.75
2022-12-16T10:57:51.317Z,309.38
2022-12-16T10:58:51.467Z,292.50
2022-12-16T10:59:51.627Z,309.38
2022-12-16T11:00:51.801Z,309.38
2022-12-16T11:01:52.114Z,315.00
2022-12-16T11:02:52.269Z,315.00
2022-12-16T11:03:52.392Z,320.62
2022-12-16T11:04:52.521Z,326.25
2022-12-16T11:05:52.720Z,320.62
2022-12-16T11:06:52.860Z,320.62
2022-12-16T11:07:53.049Z,320.62
2022-12-16T11:08:53.232Z,315.00
2022-12-16T11:09:53.382Z,303.75
2022-12-16T11:10:53.581Z,303.75
2022-12-16T11:11:53.754Z,309.38
2022-12-16T11:12:53.930Z,303.75
2022-12-16T11:13:54.099Z,281.25
2022-12-16T11:15:20.182Z,281.25
2022-12-16T11:15:55.595Z,298.12
2022-12-16T11:16:54.629Z,298.12
2022-12-16T11:17:54.819Z,298.12
2022-12-16T11:18:54.939Z,298.12
2022-12-16T11:19:55.109Z,298.12
2022-12-16T11:20:55.387Z,292.50
2022-12-16T11:21:55.460Z,292.50
2022-12-16T11:22:55.648Z,292.50
2022-12-16T11:23:55.814Z,292.50
2022-12-16T11:24:55.972Z,292.50
2022-12-16T11:25:56.160Z,292.50
2022-12-16T11:26:56.316Z,281.25
2022-12-16T11:27:56.478Z,286.88
2022-12-16T11:28:56.638Z,292.50
2022-12-16T11:29:56.851Z,292.50
2022-12-16T11:30:57.042Z,275.62
2022-12-16T11:31:59.829Z,264.38
2022-12-16T11:32:57.347Z,264.38
2022-12-16T11:33:57.519Z,275.62
2022-12-16T11:34:57.702Z,270.00
2022-12-16T11:35:57.881Z,264.38
2022-12-16T11:36:58.039Z,275.62
2022-12-16T11:37:58.206Z,281.25
2022-12-16T11:38:58.365Z,275.62
2022-12-16T11:39:58.545Z,281.25
2022-12-16T11:40:58.736Z,275.62
2022-12-16T11:41:58.993Z,281.25
2022-12-16T11:43:04.352Z,281.25
2022-12-16T11:44:00.242Z,286.88
2022-12-16T11:44:59.414Z,286.88
2022-12-16T11:45:59.592Z,281.25
2022-12-16T11:46:59.829Z,281.25
2022-12-16T11:47:59.924Z,281.25
2022-12-16T11:49:00.105Z,281.25
2022-12-16T11:50:00.255Z,281.25
2022-12-16T11:51:00.456Z,275.62
2022-12-16T11:52:21.216Z,270.00
2022-12-16T11:53:01.793Z,264.38
2022-12-16T11:54:00.975Z,264.38
2022-12-16T11:55:01.162Z,258.75
2022-12-16T11:56:08.975Z,253.12
2022-12-16T11:57:02.533Z,253.12
2022-12-16T11:58:01.663Z,247.50
2022-12-16T11:59:01.822Z,247.50
2022-12-16T12:00:02.003Z,247.50
2022-12-16T12:01:02.204Z,247.50
2022-12-16T12:02:02.423Z,247.50
2022-12-16T12:03:02.539Z,241.88
2022-12-16T12:04:02.800Z,236.25
2022-12-16T12:05:02.843Z,236.25
2022-12-16T12:06:03.022Z,236.25
2022-12-16T12:07:03.191Z,236.25
2022-12-16T12:08:03.408Z,236.25
2022-12-16T12:09:03.542Z,236.25
2022-12-16T12:10:03.714Z,230.62
2022-12-16T12:11:03.915Z,230.62
2022-12-16T12:12:04.040Z,230.62
2022-12-16T12:13:04.213Z,225.00
2022-12-16T12:14:04.379Z,219.38
2022-12-16T12:15:04.560Z,219.38
2022-12-16T12:16:04.763Z,225.00
2022-12-16T12:17:04.904Z,225.00
2022-12-16T12:18:05.121Z,230.62
2022-12-16T12:19:05.239Z,230.62
2022-12-16T12:20:05.482Z,230.62
2022-12-16T12:21:05.598Z,230.62
2022-12-16T12:22:05.759Z,230.62
2022-12-16T12:23:05.919Z,225.00
2022-12-16T12:24:06.086Z,219.38
2022-12-16T12:25:06.239Z,219.38
2022-12-16T12:26:06.430Z,219.38
2022-12-16T12:27:06.589Z,213.75
2022-12-16T12:28:06.759Z,208.12
2022-12-16T12:29:06.964Z,208.12
2022-12-16T12:30:10.402Z,213.75
2022-12-16T12:31:08.309Z,208.12
2022-12-16T12:32:07.435Z,208.12
2022-12-16T12:33:07.612Z,208.12
2022-12-16T12:34:07.787Z,208.12
2022-12-16T12:35:07.928Z,208.12
2022-12-16T12:36:08.127Z,202.50
2022-12-16T12:37:08.286Z,202.50
2022-12-16T12:38:08.454Z,196.88
2022-12-16T12:39:08.616Z,191.25
2022-12-16T12:40:08.797Z,191.25
2022-12-16T12:41:09.037Z,185.62
2022-12-16T12:42:09.188Z,185.62
2022-12-16T12:43:09.377Z,180.00
2022-12-16T12:44:09.544Z,180.00
2022-12-16T12:45:09.708Z,180.00
2022-12-16T12:46:09.888Z,180.00
2022-12-16T12:47:10.103Z,174.38
2022-12-16T12:48:10.212Z,174.38
2022-12-16T12:49:10.375Z,174.38
2022-12-16T12:50:10.576Z,174.38
2022-12-16T12:51:10.825Z,174.38
2022-12-16T12:52:10.933Z,174.38
2022-12-16T12:53:11.097Z,174.38
2022-12-16T12:54:11.264Z,168.75
2022-12-16T12:55:11.424Z,168.75
2022-12-16T12:56:11.624Z,163.12
2022-12-16T12:57:11.785Z,163.12
2022-12-16T12:58:11.945Z,163.12
2022-12-16T12:59:12.116Z,163.12
2022-12-16T13:00:12.287Z,157.50